Time;durP1;ratioP1;P1;durP2;ratioP2;P2;SDS_P1;SDS_P2;PMS_P1;PMS_P2;Temp;Humidity;BMP_temperature;BMP_pressure;BME280_temperature;BME280_humidity;BME280_pressure;Samples;Min_cycle;Max_cycle;Signal;HPM_P1;HPM_P2
2021/08/03 00:01:59;;;;;;;5.40;2.60;;;14.60;88.70;;;;;;5073365;28;20659;-88
2021/08/03 00:04:28;;;;;;;6.45;2.95;;;14.50;89.00;;;;;;5055010;28;20182;-88
2021/08/03 00:06:56;;;;;;;7.73;3.63;;;14.50;89.30;;;;;;5055281;28;20199;-88
2021/08/03 00:09:24;;;;;;;5.50;3.43;;;14.50;89.40;;;;;;5054947;28;20181;-88
2021/08/03 00:11:52;;;;;;;4.73;3.20;;;14.50;89.50;;;;;;5055040;28;20646;-88
2021/08/03 00:14:18;;;;;;;6.80;3.43;;;14.40;89.80;;;;;;5075993;28;20294;-88
2021/08/03 00:16:47;;;;;;;7.63;3.90;;;14.30;90.00;;;;;;5058789;28;20663;-88
2021/08/03 00:19:13;;;;;;;13.13;4.13;;;14.30;90.10;;;;;;5076961;28;20167;-88
2021/08/03 00:21:39;;;;;;;9.65;3.90;;;14.40;89.90;;;;;;5059149;28;20175;-88
2021/08/03 00:24:05;;;;;;;8.90;3.50;;;14.40;89.90;;;;;;5058901;28;20589;-88
2021/08/03 00:26:32;;;;;;;3.97;3.10;;;14.40;89.90;;;;;;5058526;28;20211;-88
2021/08/03 00:28:58;;;;;;;7.97;3.57;;;14.60;89.90;;;;;;5058602;28;20241;-86
2021/08/03 00:31:25;;;;;;;5.97;3.33;;;14.50;89.60;;;;;;5058788;28;20270;-86
2021/08/03 00:33:56;;;;;;;6.40;3.73;;;14.60;89.70;;;;;;5076308;28;20301;-87
2021/08/03 00:36:29;;;;;;;5.97;3.05;;;14.60;89.60;;;;;;5058414;28;20286;-86
2021/08/03 00:38:55;;;;;;;6.28;3.47;;;14.70;89.60;;;;;;5058479;28;20175;-87
2021/08/03 00:41:30;;;;;;;5.15;3.33;;;14.70;89.30;;;;;;5076266;28;20232;-88
2021/08/03 00:43:56;;;;;;;4.82;3.55;;;14.60;89.50;;;;;;5058324;28;20182;-87
2021/08/03 00:46:22;;;;;;;7.20;3.60;;;14.70;89.40;;;;;;5058199;28;20206;-87
2021/08/03 00:48:48;;;;;;;6.07;3.92;;;14.70;89.40;;;;;;5076129;28;20647;-87
2021/08/03 00:51:13;;;;;;;8.57;3.30;;;14.70;89.40;;;;;;5058332;28;20214;-87
2021/08/03 00:53:43;;;;;;;5.55;3.20;;;14.70;89.60;;;;;;5058147;28;20199;-88
2021/08/03 00:56:08;;;;;;;11.18;3.50;;;14.70;89.60;;;;;;5058008;28;20198;-87
2021/08/03 00:58:34;;;;;;;5.07;3.20;;;14.60;90.00;;;;;;5058346;28;20171;-87
2021/08/03 01:01:00;;;;;;;4.60;3.73;;;14.60;90.20;;;;;;5058247;28;20584;-88
2021/08/03 01:03:26;;;;;;;7.28;3.30;;;14.50;90.30;;;;;;5057850;28;20197;-87
2021/08/03 01:06:12;;;;;;;5.13;3.00;;;14.60;90.30;;;;;;5075771;28;20172;-88
2021/08/03 01:08:56;;;;;;;5.40;2.93;;;14.70;90.00;;;;;;5058857;28;20254;-88
2021/08/03 01:11:33;;;;;;;4.63;2.42;;;14.80;89.90;;;;;;5057812;28;20725;-87
2021/08/03 01:14:10;;;;;;;7.23;2.93;;;14.70;90.00;;;;;;5058573;28;20561;-88
2021/08/03 01:16:49;;;;;;;8.40;3.80;;;14.70;90.10;;;;;;5057693;28;20274;-87
2021/08/03 01:19:22;;;;;;;7.90;3.90;;;14.60;90.40;;;;;;5075580;28;20155;-88
2021/08/03 01:21:49;;;;;;;12.30;5.00;;;14.50;90.70;;;;;;5075579;28;20152;-87
2021/08/03 01:24:36;;;;;;;8.87;4.87;;;14.40;91.00;;;;;;5057984;28;20233;-87
2021/08/03 01:27:10;;;;;;;7.60;4.27;;;14.30;91.20;;;;;;5057410;28;20218;-87
2021/08/03 01:29:36;;;;;;;10.40;4.70;;;14.30;91.20;;;;;;5057741;28;20202;-88
2021/08/03 01:32:09;;;;;;;9.97;4.70;;;14.30;91.00;;;;;;5075362;28;20172;-87
2021/08/03 01:34:45;;;;;;;7.73;4.10;;;14.30;90.80;;;;;;5075265;28;20190;-87
2021/08/03 01:37:16;;;;;;;6.83;4.13;;;14.20;90.60;;;;;;5075510;28;20198;-87
2021/08/03 01:39:53;;;;;;;10.00;4.77;;;14.20;90.70;;;;;;5075262;28;20152;-87
2021/08/03 01:42:22;;;;;;;8.83;4.07;;;14.20;90.70;;;;;;5075309;28;20155;-87
2021/08/03 01:44:48;;;;;;;12.87;5.10;;;14.20;90.80;;;;;;5057213;28;20188;-87
2021/08/03 01:47:17;;;;;;;9.70;4.97;;;14.20;90.90;;;;;;5057080;28;20639;-87
2021/08/03 01:49:45;;;;;;;7.77;4.37;;;14.20;90.90;;;;;;5074971;28;20217;-87
2021/08/03 01:52:12;;;;;;;7.50;4.33;;;14.20;91.00;;;;;;5057075;28;20244;-87
2021/08/03 01:54:39;;;;;;;14.10;4.83;;;14.20;91.00;;;;;;5056963;28;20750;-87
2021/08/03 01:57:07;;;;;;;8.80;4.37;;;14.20;91.00;;;;;;5056987;28;20199;-87
2021/08/03 01:59:33;;;;;;;6.87;4.20;;;14.20;91.20;;;;;;5056984;28;20167;-87
2021/08/03 02:02:00;;;;;;;9.23;5.00;;;14.20;91.10;;;;;;5056986;28;20249;-87
2021/08/03 02:04:28;;;;;;;9.43;4.43;;;14.20;91.10;;;;;;5056917;28;20175;-87
2021/08/03 02:06:54;;;;;;;7.57;4.20;;;14.20;91.00;;;;;;5056831;28;20200;-87
2021/08/03 02:09:21;;;;;;;9.23;4.30;;;14.30;90.90;;;;;;5074680;28;20206;-87
2021/08/03 02:11:48;;;;;;;8.40;3.90;;;14.30;90.60;;;;;;5056673;28;20186;-87
2021/08/03 02:14:14;;;;;;;4.83;3.27;;;14.30;90.50;;;;;;5056798;28;20564;-87
2021/08/03 02:16:40;;;;;;;9.90;3.50;;;14.30;90.30;;;;;;5056555;28;20273;-87
2021/08/03 02:19:07;;;;;;;4.67;3.17;;;14.30;90.10;;;;;;5056585;28;20213;-87
2021/08/03 02:21:33;;;;;;;6.00;2.93;;;14.30;90.20;;;;;;5056972;28;20206;-87
2021/08/03 02:23:58;;;;;;;6.60;3.20;;;14.30;90.30;;;;;;5057074;28;20591;-87
2021/08/03 02:26:24;;;;;;;5.93;3.13;;;14.30;90.20;;;;;;5056445;28;20207;-87
2021/08/03 02:28:50;;;;;;;7.37;3.20;;;14.30;90.30;;;;;;5056375;28;20167;-87
2021/08/03 02:31:39;;;;;;;7.20;4.10;;;14.30;90.30;;;;;;5056549;28;20266;-87
2021/08/03 02:34:28;;;;;;;7.50;3.90;;;14.20;90.30;;;;;;5056482;28;20194;-87
2021/08/03 02:36:58;;;;;;;5.37;3.73;;;14.20;90.50;;;;;;5073575;28;20313;-87
2021/08/03 02:39:26;;;;;;;5.97;4.43;;;14.20;90.70;;;;;;5056129;28;20171;-87
2021/08/03 02:41:53;;;;;;;10.57;4.77;;;14.20;91.00;;;;;;5056158;28;20670;-87
2021/08/03 02:44:20;;;;;;;9.90;4.43;;;14.20;91.20;;;;;;5056155;28;20175;-87
2021/08/03 02:46:53;;;;;;;7.03;5.33;;;14.20;91.20;;;;;;5056033;28;20682;-87
2021/08/03 02:49:28;;;;;;;5.93;3.67;;;14.20;91.00;;;;;;5056162;28;20164;-87
2021/08/03 02:51:54;;;;;;;10.40;4.40;;;14.20;90.80;;;;;;5056073;28;20167;-87
2021/08/03 02:54:31;;;;;;;10.63;4.57;;;14.20;90.60;;;;;;5074047;28;20206;-87
2021/08/03 02:57:00;;;;;;;11.50;5.07;;;14.20;90.80;;;;;;5055845;28;20598;-87
2021/08/03 02:59:31;;;;;;;9.53;5.33;;;14.10;90.80;;;;;;5055826;28;20175;-87
2021/08/03 03:01:58;;;;;;;10.37;5.50;;;14.20;90.60;;;;;;5055854;28;20206;-87
2021/08/03 03:04:32;;;;;;;8.80;5.70;;;14.10;90.60;;;;;;5055990;28;20177;-87
2021/08/03 03:07:04;;;;;;;10.10;5.87;;;14.00;90.70;;;;;;5055673;28;20651;-87
2021/08/03 03:09:34;;;;;;;10.20;7.00;;;14.00;90.90;;;;;;5073569;28;20212;-87
2021/08/03 03:12:03;;;;;;;10.07;6.47;;;13.90;91.20;;;;;;5055643;28;20681;-87
2021/08/03 03:14:29;;;;;;;10.67;6.50;;;13.90;91.20;;;;;;5055422;28;20195;-87
2021/08/03 03:16:58;;;;;;;7.87;5.97;;;13.90;91.40;;;;;;5055496;28;20236;-87
2021/08/03 03:19:24;;;;;;;9.53;6.33;;;13.80;91.80;;;;;;5055858;28;20677;-87
2021/08/03 03:21:53;;;;;;;11.87;6.10;;;13.90;91.80;;;;;;5055488;28;20200;-87
2021/08/03 03:24:20;;;;;;;11.30;6.80;;;13.80;91.90;;;;;;5055539;28;20678;-87
2021/08/03 03:26:49;;;;;;;10.97;5.90;;;13.80;92.10;;;;;;5055290;28;20217;-87
2021/08/03 03:29:17;;;;;;;7.57;5.10;;;13.80;92.10;;;;;;5055490;28;20175;-87
2021/08/03 03:31:45;;;;;;;13.07;5.00;;;13.80;92.10;;;;;;5055602;28;20191;-87
2021/08/03 03:34:12;;;;;;;7.47;4.97;;;13.80;91.90;;;;;;5055266;28;20260;-87
2021/08/03 03:36:39;;;;;;;9.07;4.70;;;13.90;91.90;;;;;;5073250;28;20187;-87
2021/08/03 03:39:08;;;;;;;16.47;4.60;;;13.90;91.80;;;;;;5055254;28;20167;-87
2021/08/03 03:41:34;;;;;;;12.17;5.43;;;13.90;91.70;;;;;;5073257;28;20171;-87
2021/08/03 03:44:00;;;;;;;11.50;6.80;;;14.00;91.80;;;;;;5055266;28;20221;-87
2021/08/03 03:46:34;;;;;;;9.80;5.30;;;14.00;91.80;;;;;;5073209;28;20191;-87
2021/08/03 03:49:11;;;;;;;15.53;5.40;;;14.00;91.90;;;;;;5058163;28;20251;-87
2021/08/03 03:51:40;;;;;;;9.83;5.27;;;14.00;91.80;;;;;;5059433;28;20171;-87
2021/08/03 03:54:08;;;;;;;12.03;4.77;;;14.10;91.70;;;;;;5060043;28;20230;-87
2021/08/03 03:56:41;;;;;;;8.17;4.43;;;14.00;91.70;;;;;;5060046;28;20195;-87
2021/08/03 03:59:09;;;;;;;7.23;3.97;;;14.00;91.70;;;;;;5059287;28;20171;-87
2021/08/03 04:01:35;;;;;;;11.40;4.27;;;14.00;91.70;;;;;;5059276;28;20171;-87
2021/08/03 04:04:05;;;;;;;7.57;3.50;;;14.00;91.70;;;;;;5077057;28;20175;-87
2021/08/03 04:06:32;;;;;;;10.07;3.70;;;14.10;91.70;;;;;;5058984;28;20289;-87
2021/08/03 04:08:58;;;;;;;6.37;4.17;;;14.00;91.60;;;;;;5059315;28;20182;-88
2021/08/03 04:11:24;;;;;;;10.73;3.67;;;14.10;91.60;;;;;;5077494;28;20536;-87
2021/08/03 04:13:51;;;;;;;10.73;3.67;;;14.20;91.60;;;;;;5058979;28;20659;-87
2021/08/03 04:16:17;;;;;;;8.20;4.30;;;14.20;91.60;;;;;;5058770;28;20195;-87
2021/08/03 04:18:43;;;;;;;8.67;3.83;;;14.20;91.60;;;;;;5076871;28;20171;-87
2021/08/03 04:21:08;;;;;;;5.40;3.33;;;14.30;91.60;;;;;;5058895;28;20175;-87
2021/08/03 04:23:34;;;;;;;7.87;3.20;;;14.20;91.20;;;;;;5058755;28;20171;-87
2021/08/03 04:26:00;;;;;;;4.33;2.70;;;14.20;91.10;;;;;;5058480;28;20229;-88
2021/08/03 04:28:26;;;;;;;5.17;2.70;;;14.30;91.10;;;;;;5059608;28;20180;-88
2021/08/03 04:30:52;;;;;;;4.83;3.07;;;14.30;91.00;;;;;;5076570;28;20168;-88
2021/08/03 04:33:18;;;;;;;4.87;3.20;;;14.40;90.80;;;;;;5076692;28;20237;-87
2021/08/03 04:35:43;;;;;;;5.60;2.97;;;14.30;90.40;;;;;;5058554;28;20179;-87
2021/08/03 04:38:09;;;;;;;6.40;3.00;;;14.40;90.50;;;;;;5058340;28;20195;-87
2021/08/03 04:40:35;;;;;;;4.43;2.67;;;14.50;90.50;;;;;;5058466;28;20174;-87
2021/08/03 04:43:01;;;;;;;9.97;2.50;;;14.60;90.60;;;;;;5058377;28;20171;-87
2021/08/03 04:45:26;;;;;;;7.88;2.75;;;14.60;90.50;;;;;;5076240;28;20258;-87
2021/08/03 04:47:53;;;;;;;5.53;3.10;;;14.70;90.50;;;;;;5058189;28;20195;-87
2021/08/03 04:50:22;;;;;;;8.75;2.35;;;14.70;90.50;;;;;;5058250;28;20175;-87
2021/08/03 04:52:49;;;;;;;5.05;2.17;;;14.70;90.40;;;;;;5076166;28;20176;-87
2021/08/03 04:55:14;;;;;;;4.25;2.00;;;14.80;90.40;;;;;;5058214;28;20206;-87
2021/08/03 04:57:42;;;;;;;4.53;2.20;;;14.70;90.10;;;;;;5058073;28;20286;-87
2021/08/03 05:00:10;;;;;;;5.20;1.67;;;14.80;90.10;;;;;;5057484;28;20176;-87
2021/08/03 05:02:36;;;;;;;6.30;2.07;;;14.70;89.80;;;;;;5057938;28;20167;-87
2021/08/03 05:05:03;;;;;;;1.63;1.50;;;14.70;89.80;;;;;;5057997;28;20589;-87
2021/08/03 05:07:29;;;;;;;2.47;1.65;;;14.70;89.90;;;;;;5057969;28;20195;-87
2021/08/03 05:10:00;;;;;;;6.53;2.00;;;14.70;89.80;;;;;;5075856;28;20224;-87
2021/08/03 05:12:26;;;;;;;4.27;2.23;;;14.60;89.90;;;;;;5075861;28;20160;-87
2021/08/03 05:14:54;;;;;;;5.35;2.40;;;14.70;90.00;;;;;;5057811;28;20299;-87
2021/08/03 05:17:20;;;;;;;3.15;1.85;;;14.70;89.90;;;;;;5057692;28;20287;-87
2021/08/03 05:19:45;;;;;;;2.60;1.90;;;14.70;89.70;;;;;;5057749;28;20244;-87
2021/08/03 05:22:11;;;;;;;4.55;1.92;;;14.70;89.70;;;;;;5057682;28;20194;-87
2021/08/03 05:24:37;;;;;;;2.13;1.70;;;14.70;89.80;;;;;;5057629;28;20198;-87
2021/08/03 05:27:02;;;;;;;3.50;1.65;;;14.70;89.80;;;;;;5057456;28;20207;-87
2021/08/03 05:29:28;;;;;;;4.38;1.70;;;14.80;89.80;;;;;;5058450;28;20176;-87
2021/08/03 05:31:54;;;;;;;3.83;1.80;;;14.80;89.90;;;;;;5057588;28;20175;-87
2021/08/03 05:34:19;;;;;;;2.92;2.13;;;14.80;89.80;;;;;;5057404;28;20744;-88
2021/08/03 05:36:45;;;;;;;4.87;2.27;;;14.70;89.80;;;;;;5057404;28;20282;-87
2021/08/03 05:39:12;;;;;;;8.40;2.30;;;14.70;90.10;;;;;;5057327;28;20221;-87
2021/08/03 05:41:37;;;;;;;1.93;1.80;;;14.70;90.30;;;;;;5075255;28;20167;-87
2021/08/03 05:44:03;;;;;;;2.55;1.60;;;14.80;90.20;;;;;;5057381;28;20182;-87
2021/08/03 05:46:31;;;;;;;3.80;1.67;;;14.80;89.90;;;;;;5057230;28;20282;-87
2021/08/03 05:48:57;;;;;;;6.20;1.50;;;14.80;89.90;;;;;;5075154;28;20167;-87
2021/08/03 05:51:22;;;;;;;4.63;1.70;;;14.80;89.30;;;;;;5075058;28;20521;-87
2021/08/03 05:53:48;;;;;;;3.53;1.67;;;14.80;89.00;;;;;;5074912;28;20534;-87
2021/08/03 05:56:13;;;;;;;5.03;1.80;;;14.80;89.20;;;;;;5056967;28;20202;-87
2021/08/03 05:58:39;;;;;;;3.00;1.63;;;14.80;88.70;;;;;;5057045;28;20171;-87
2021/08/03 06:01:05;;;;;;;4.43;2.00;;;14.90;88.70;;;;;;5056970;28;20171;-87
2021/08/03 06:03:30;;;;;;;3.77;1.90;;;14.90;88.50;;;;;;5075079;28;20273;-87
2021/08/03 06:05:56;;;;;;;3.83;1.90;;;15.00;88.20;;;;;;5056815;28;20179;-88
2021/08/03 06:08:24;;;;;;;3.90;2.10;;;15.10;88.70;;;;;;5056846;28;20168;-88
2021/08/03 06:10:52;;;;;;;4.53;2.10;;;15.20;88.60;;;;;;5055958;28;20207;-87
2021/08/03 06:13:24;;;;;;;4.90;2.03;;;15.30;88.50;;;;;;5056706;28;20186;-87
2021/08/03 06:15:51;;;;;;;3.90;2.37;;;15.40;88.40;;;;;;5056533;28;20171;-86
2021/08/03 06:18:23;;;;;;;6.53;2.07;;;15.50;86.60;;;;;;5056735;28;20552;-87
2021/08/03 06:20:49;;;;;;;3.60;1.77;;;15.60;86.60;;;;;;5056756;28;20611;-87
2021/08/03 06:23:15;;;;;;;3.77;2.20;;;15.60;85.90;;;;;;5074649;28;20198;-87
2021/08/03 06:25:43;;;;;;;4.93;2.30;;;15.50;85.60;;;;;;5074709;28;20168;-87
2021/08/03 06:28:08;;;;;;;6.87;2.70;;;15.60;85.30;;;;;;5056671;28;20211;-87
2021/08/03 06:30:38;;;;;;;3.90;3.00;;;15.60;84.30;;;;;;5074668;28;20225;-87
2021/08/03 06:33:07;;;;;;;3.92;2.38;;;15.60;84.40;;;;;;5074437;28;20171;-87
2021/08/03 06:35:33;;;;;;;5.97;3.27;;;15.60;84.60;;;;;;5074562;28;20202;-87
2021/08/03 06:37:59;;;;;;;6.50;3.22;;;15.70;84.80;;;;;;5056592;28;20191;-87
2021/08/03 06:40:25;;;;;;;3.58;2.20;;;15.80;85.30;;;;;;5056342;28;20178;-87
2021/08/03 06:43:01;;;;;;;3.00;1.98;;;15.70;84.60;;;;;;5074170;28;20171;-87
2021/08/03 06:45:33;;;;;;;4.57;2.40;;;15.90;84.60;;;;;;5056565;28;20175;-86
2021/08/03 06:48:19;;;;;;;4.22;2.35;;;16.00;85.00;;;;;;5056796;28;20226;-86
2021/08/03 06:51:00;;;;;;;5.38;1.52;;;16.00;83.60;;;;;;5056611;28;20174;-87
2021/08/03 06:53:27;;;;;;;5.25;1.20;;;16.00;81.50;;;;;;5074145;28;20160;-87
2021/08/03 06:55:55;;;;;;;5.18;1.88;;;16.00;81.30;;;;;;5056211;28;20176;-87
2021/08/03 06:58:39;;;;;;;2.78;1.23;;;15.90;81.00;;;;;;5056274;28;20268;-87
2021/08/03 07:01:07;;;;;;;5.03;1.15;;;16.00;81.40;;;;;;5056222;28;20179;-87
2021/08/03 07:03:42;;;;;;;4.95;1.30;;;16.00;79.60;;;;;;5074096;28;20179;-87
2021/08/03 07:06:11;;;;;;;2.30;1.30;;;16.10;81.30;;;;;;5055922;28;20280;-87
2021/08/03 07:08:37;;;;;;;3.13;1.30;;;16.10;80.20;;;;;;5055847;28;20180;-87
2021/08/03 07:11:03;;;;;;;1.42;1.20;;;16.30;80.10;;;;;;5056027;28;20178;-86
2021/08/03 07:13:30;;;;;;;2.15;1.20;;;16.30;81.20;;;;;;5055884;28;20575;-87
2021/08/03 07:15:56;;;;;;;1.30;0.95;;;16.30;79.80;;;;;;5073986;28;20190;-87
2021/08/03 07:18:22;;;;;;;2.65;1.20;;;16.30;80.20;;;;;;5073953;28;20213;-87
2021/08/03 07:20:49;;;;;;;6.63;1.40;;;16.30;80.30;;;;;;5055825;28;20262;-87
2021/08/03 07:23:19;;;;;;;1.23;1.13;;;16.50;81.50;;;;;;5073481;28;20266;-87
2021/08/03 07:25:50;;;;;;;2.95;1.23;;;16.50;79.70;;;;;;5056055;28;20183;-87
2021/08/03 07:28:19;;;;;;;3.17;1.30;;;16.50;78.90;;;;;;5056586;28;20184;-87
2021/08/03 07:30:44;;;;;;;1.48;1.38;;;16.40;78.80;;;;;;5057480;28;20182;-87
2021/08/03 07:33:14;;;;;;;1.75;1.35;;;16.40;80.70;;;;;;5074534;28;20172;-87
2021/08/03 07:35:41;;;;;;;3.38;1.40;;;16.40;80.70;;;;;;5057463;28;20207;-87
2021/08/03 07:38:08;;;;;;;2.22;1.30;;;16.40;78.40;;;;;;5056361;28;20268;-87
2021/08/03 07:40:34;;;;;;;2.60;1.20;;;16.40;79.00;;;;;;5145359;22;20186;-83
2021/08/03 07:43:00;;;;;;;3.53;1.40;;;16.50;80.70;;;;;;5073218;28;20191;-84
2021/08/03 07:45:25;;;;;;;2.40;1.15;;;16.60;80.40;;;;;;5055038;28;20168;-84
2021/08/03 07:47:51;;;;;;;1.67;1.08;;;16.70;80.20;;;;;;5055015;28;20178;-84
2021/08/03 07:50:17;;;;;;;2.85;1.17;;;16.70;80.10;;;;;;5073200;28;20179;-83
2021/08/03 07:52:42;;;;;;;4.13;1.17;;;16.70;77.30;;;;;;5054998;28;20183;-84
2021/08/03 07:55:08;;;;;;;1.52;1.00;;;16.60;78.30;;;;;;5054878;28;20289;-83
2021/08/03 07:57:34;;;;;;;3.17;1.17;;;16.70;78.10;;;;;;5073000;28;20653;-84
2021/08/03 08:00:00;;;;;;;6.82;1.27;;;16.80;78.90;;;;;;5072906;28;20178;-84
2021/08/03 08:02:25;;;;;;;4.78;1.58;;;16.90;80.00;;;;;;5072818;28;20202;-84
2021/08/03 08:04:51;;;;;;;3.08;1.27;;;16.90;78.80;;;;;;5054992;28;20186;-83
2021/08/03 08:07:17;;;;;;;2.55;1.10;;;16.90;77.80;;;;;;5073666;28;20183;-84
2021/08/03 08:09:43;;;;;;;6.65;1.48;;;16.90;78.30;;;;;;5073267;28;20171;-83
2021/08/03 08:12:09;;;;;;;2.88;1.10;;;17.00;79.50;;;;;;5056330;28;20197;-83
2021/08/03 08:14:34;;;;;;;1.90;1.10;;;17.00;77.70;;;;;;5054989;28;20234;-83
2021/08/03 08:17:01;;;;;;;1.73;1.27;;;16.90;77.80;;;;;;5054746;28;20225;-83
2021/08/03 08:19:27;;;;;;;4.00;1.58;;;16.90;79.20;;;;;;5073083;28;20163;-83
2021/08/03 08:21:53;;;;;;;5.32;1.98;;;17.00;78.50;;;;;;5072640;28;20713;-83
2021/08/03 08:24:19;;;;;;;5.78;2.00;;;17.10;77.80;;;;;;5072929;28;20176;-83
2021/08/03 08:26:46;;;;;;;4.95;1.08;;;17.10;78.50;;;;;;5054613;28;20171;-83
2021/08/03 08:29:16;;;;;;;3.83;1.40;;;17.00;75.00;;;;;;5073887;28;20684;-84
2021/08/03 08:31:43;;;;;;;8.18;2.17;;;17.10;76.20;;;;;;5056407;28;20206;-84
2021/08/03 08:34:10;;;;;;;6.60;1.30;;;17.00;76.10;;;;;;5075568;28;20286;-86
2021/08/03 08:36:35;;;;;;;4.18;1.35;;;17.20;77.20;;;;;;5077612;28;20172;-82
2021/08/03 08:39:01;;;;;;;1.70;1.00;;;17.10;75.20;;;;;;5077663;28;20171;-84
2021/08/03 08:41:26;;;;;;;2.33;1.13;;;17.20;76.00;;;;;;5078010;28;20198;-85
2021/08/03 08:43:52;;;;;;;2.25;0.95;;;17.30;77.50;;;;;;5076120;28;20175;-84
2021/08/03 08:46:18;;;;;;;1.48;1.00;;;17.20;75.70;;;;;;5075841;28;20190;-85
2021/08/03 08:48:45;;;;;;;1.20;1.02;;;17.30;76.20;;;;;;5076070;28;20163;-84
2021/08/03 08:51:10;;;;;;;1.20;1.10;;;17.40;76.00;;;;;;5075960;28;20197;-85
2021/08/03 08:53:37;;;;;;;3.03;1.30;;;17.60;76.60;;;;;;5076066;28;20164;-85
2021/08/03 08:56:04;;;;;;;3.92;1.25;;;17.70;75.00;;;;;;5076016;28;20649;-84
2021/08/03 08:58:34;;;;;;;2.05;1.10;;;17.70;75.30;;;;;;5058051;28;20186;-85
2021/08/03 09:01:00;;;;;;;2.03;1.38;;;17.60;74.10;;;;;;5057802;28;20195;-85
2021/08/03 09:03:26;;;;;;;4.15;1.35;;;17.70;75.40;;;;;;5057881;28;20637;-84
2021/08/03 09:06:01;;;;;;;7.07;4.35;;;17.80;75.70;;;;;;5075685;28;20191;-84
2021/08/03 09:08:39;;;;;;;6.25;2.65;;;17.90;73.60;;;;;;5075595;28;20174;-84
2021/08/03 09:11:25;;;;;;;4.82;1.55;;;18.10;75.20;;;;;;5075676;28;20187;-84
2021/08/03 09:13:58;;;;;;;2.65;1.20;;;18.30;75.90;;;;;;5075552;28;20615;-86
2021/08/03 09:16:42;;;;;;;8.30;1.50;;;18.20;76.50;;;;;;5075465;28;20168;-84
2021/08/03 09:19:30;;;;;;;1.88;1.10;;;18.50;77.70;;;;;;5075570;28;20186;-84
2021/08/03 09:22:22;;;;;;;4.82;1.40;;;18.60;74.90;;;;;;5075380;28;20194;-84
2021/08/03 09:25:08;;;;;;;2.53;1.40;;;18.20;76.00;;;;;;5057669;28;20588;-84
2021/08/03 09:27:42;;;;;;;6.43;1.20;;;17.80;76.00;;;;;;5057404;28;20545;-84
2021/08/03 09:30:33;;;;;;;2.65;1.00;;;17.50;78.20;;;;;;5057351;28;20630;-84
2021/08/03 09:32:59;;;;;;;3.88;1.45;;;17.30;78.10;;;;;;5075473;28;20250;-84
2021/08/03 09:35:26;;;;;;;3.30;1.30;;;17.00;80.50;;;;;;5075166;28;20236;-85
2021/08/03 09:37:54;;;;;;;2.08;1.35;;;17.10;79.60;;;;;;5057470;28;20186;-85
2021/08/03 09:40:25;;;;;;;2.00;1.10;;;17.10;78.10;;;;;;5057154;28;20171;-85
2021/08/03 09:43:07;;;;;;;2.13;1.20;;;17.00;78.70;;;;;;5075162;28;20179;-84
2021/08/03 09:45:53;;;;;;;4.75;1.35;;;16.90;79.30;;;;;;5075726;28;20173;-84
2021/08/03 09:48:21;;;;;;;1.20;1.10;;;16.90;79.20;;;;;;5056986;28;20236;-84
2021/08/03 09:51:01;;;;;;;1.90;1.27;;;16.90;79.30;;;;;;5075205;28;20220;-84
2021/08/03 09:53:37;;;;;;;1.92;1.10;;;16.90;78.50;;;;;;5056909;28;20183;-84
2021/08/03 09:56:03;;;;;;;1.98;1.20;;;17.10;78.60;;;;;;5056762;28;20186;-84
2021/08/03 09:58:29;;;;;;;1.50;1.00;;;17.00;79.10;;;;;;5074905;28;20167;-85
2021/08/03 10:00:55;;;;;;;3.42;1.20;;;17.10;79.20;;;;;;5074563;28;20608;-85
2021/08/03 10:03:23;;;;;;;1.50;1.10;;;17.20;78.70;;;;;;5056697;28;20643;-85
2021/08/03 10:05:49;;;;;;;1.35;1.10;;;17.20;77.90;;;;;;5056625;28;20180;-85
2021/08/03 10:08:16;;;;;;;2.05;1.10;;;17.10;78.40;;;;;;5056495;28;20527;-85
2021/08/03 10:10:44;;;;;;;1.38;1.10;;;17.20;77.40;;;;;;5056483;28;20195;-84
2021/08/03 10:13:11;;;;;;;2.33;1.20;;;17.20;77.80;;;;;;5056464;28;20175;-85
2021/08/03 10:15:37;;;;;;;2.08;1.27;;;17.40;77.40;;;;;;5056314;28;20273;-85
2021/08/03 10:18:03;;;;;;;2.78;0.98;;;17.60;76.50;;;;;;5056348;28;20202;-84
2021/08/03 10:20:29;;;;;;;5.63;2.33;;;17.70;75.40;;;;;;5074294;28;20171;-84
2021/08/03 10:23:02;;;;;;;1.38;0.80;;;17.80;74.40;;;;;;5056371;28;20194;-84
2021/08/03 10:25:39;;;;;;;2.15;1.00;;;17.90;74.70;;;;;;5074106;28;20247;-84
2021/08/03 10:28:26;;;;;;;2.08;1.15;;;17.80;74.10;;;;;;5074156;28;20205;-84
2021/08/03 10:30:54;;;;;;;7.03;1.00;;;17.80;73.30;;;;;;5056293;28;20187;-84
2021/08/03 10:33:43;;;;;;;4.35;1.02;;;17.90;73.30;;;;;;5056091;28;20262;-84
2021/08/03 10:36:29;;;;;;;2.08;0.90;;;18.00;72.60;;;;;;5074036;28;20187;-84
2021/08/03 10:39:20;;;;;;;2.80;1.17;;;18.20;74.20;;;;;;5055709;28;20730;-84
2021/08/03 10:41:58;;;;;;;2.72;1.10;;;18.20;71.20;;;;;;5055899;28;20569;-84
2021/08/03 10:44:52;;;;;;;0.80;0.80;;;17.90;70.80;;;;;;5073775;28;20167;-84
2021/08/03 10:47:33;;;;;;;2.63;0.98;;;18.10;72.80;;;;;;5055713;28;20259;-84
2021/08/03 10:50:00;;;;;;;1.00;0.90;;;18.40;73.80;;;;;;5055761;28;20179;-84
2021/08/03 10:52:44;;;;;;;1.20;0.93;;;18.40;68.70;;;;;;5073585;28;20559;-84
2021/08/03 10:55:34;;;;;;;3.97;1.10;;;18.50;70.00;;;;;;5073542;28;20199;-84
2021/08/03 10:58:09;;;;;;;5.78;1.33;;;18.30;69.90;;;;;;5073159;28;20162;-84
2021/08/03 11:00:55;;;;;;;1.83;0.90;;;18.50;66.00;;;;;;5073544;28;20176;-84
2021/08/03 11:03:33;;;;;;;1.58;0.80;;;18.40;66.30;;;;;;5073823;28;20170;-85
2021/08/03 11:06:10;;;;;;;2.15;1.05;;;18.70;70.60;;;;;;5073435;28;20171;-84
2021/08/03 11:08:38;;;;;;;1.85;0.80;;;18.90;70.00;;;;;;5073376;28;20186;-85
2021/08/03 11:11:09;;;;;;;2.35;1.02;;;19.20;68.00;;;;;;5073498;28;20184;-84
2021/08/03 11:13:49;;;;;;;1.02;0.85;;;19.50;66.70;;;;;;5055346;28;20220;-85
2021/08/03 11:16:24;;;;;;;1.17;0.85;;;19.70;66.70;;;;;;5055479;28;20170;-85
2021/08/03 11:18:52;;;;;;;1.50;0.80;;;19.90;64.90;;;;;;5073391;28;20175;-85
2021/08/03 11:21:47;;;;;;;1.42;0.77;;;19.90;64.80;;;;;;5073139;28;20266;-84
2021/08/03 11:24:15;;;;;;;3.22;0.82;;;19.80;62.30;;;;;;5055977;28;20245;-84
2021/08/03 11:26:56;;;;;;;3.30;0.90;;;19.60;62.00;;;;;;5073334;28;20264;-83
2021/08/03 11:29:24;;;;;;;1.80;1.00;;;19.50;66.20;;;;;;5073535;28;20229;-84
2021/08/03 11:31:55;;;;;;;0.80;0.80;;;19.90;67.40;;;;;;5054977;28;20229;-84
2021/08/03 11:34:32;;;;;;;2.00;1.10;;;20.20;64.30;;;;;;5073040;28;20234;-84
2021/08/03 11:37:07;;;;;;;1.30;1.00;;;20.20;65.40;;;;;;5055102;28;20620;-84
2021/08/03 11:39:37;;;;;;;0.93;0.90;;;20.30;63.70;;;;;;5055211;28;20159;-84
2021/08/03 11:42:03;;;;;;;1.17;1.00;;;20.30;65.00;;;;;;5073002;28;20289;-84
2021/08/03 11:44:29;;;;;;;1.88;1.02;;;20.80;62.90;;;;;;5055646;28;20237;-84
2021/08/03 11:46:58;;;;;;;2.72;0.90;;;20.90;61.20;;;;;;5073330;28;20172;-84
2021/08/03 11:49:35;;;;;;;3.10;0.90;;;20.50;62.80;;;;;;5072863;28;20179;-84
2021/08/03 11:52:07;;;;;;;2.47;1.00;;;20.70;60.80;;;;;;5073027;28;20213;-84
2021/08/03 11:54:32;;;;;;;2.70;0.90;;;21.10;63.00;;;;;;5072720;28;20209;-85
2021/08/03 11:56:58;;;;;;;1.13;1.00;;;21.40;62.00;;;;;;5073042;28;20168;-84
2021/08/03 11:59:30;;;;;;;1.58;1.13;;;21.80;61.70;;;;;;5072948;28;20168;-84
2021/08/03 12:01:56;;;;;;;3.35;1.20;;;22.00;57.60;;;;;;5073120;28;20271;-84
2021/08/03 12:04:22;;;;;;;1.88;0.90;;;22.00;57.70;;;;;;5072849;28;20262;-84
2021/08/03 12:06:50;;;;;;;1.58;0.90;;;21.60;59.70;;;;;;5072759;28;20639;-84
2021/08/03 12:09:18;;;;;;;0.68;0.68;;;21.30;59.60;;;;;;5056569;28;20274;-84
2021/08/03 12:11:45;;;;;;;5.15;1.15;;;21.20;58.10;;;;;;5058755;28;20199;-85
2021/08/03 12:14:15;;;;;;;3.22;1.00;;;20.70;60.90;;;;;;5076571;28;20198;-84
2021/08/03 12:16:45;;;;;;;1.85;0.90;;;20.90;63.70;;;;;;5059271;28;20186;-84
2021/08/03 12:19:31;;;;;;;2.70;0.80;;;21.20;60.90;;;;;;5076629;28;20174;-84
2021/08/03 12:21:58;;;;;;;1.20;0.80;;;21.60;60.20;;;;;;5076601;28;20321;-85
2021/08/03 12:24:23;;;;;;;0.63;0.63;;;21.70;56.90;;;;;;5076440;28;20183;-84
2021/08/03 12:27:12;;;;;;;2.00;0.85;;;21.80;58.20;;;;;;5076849;28;20182;-84
2021/08/03 12:29:37;;;;;;;1.40;0.88;;;22.20;59.90;;;;;;5076532;28;20213;-85
2021/08/03 12:32:04;;;;;;;2.00;0.82;;;22.50;54.80;;;;;;5076322;28;20686;-84
2021/08/03 12:34:38;;;;;;;3.10;0.63;;;22.20;52.70;;;;;;5076278;28;20248;-83
2021/08/03 12:37:05;;;;;;;2.25;0.90;;;22.10;54.60;;;;;;5076308;28;20164;-83
2021/08/03 12:39:36;;;;;;;3.45;1.15;;;22.10;58.70;;;;;;5077208;28;20193;-83
2021/08/03 12:45:10;;;;;;;2.63;0.90;;;22.10;57.60;;;;;;5078117;28;20179;-83
2021/08/03 12:47:36;;;;;;;2.17;0.70;;;22.10;56.00;;;;;;5077215;28;20170;-83
2021/08/03 12:50:10;;;;;;;1.67;0.93;;;22.10;55.90;;;;;;5058201;28;20270;-84
2021/08/03 12:52:57;;;;;;;1.27;0.90;;;22.30;57.70;;;;;;5076031;28;20252;-83
2021/08/03 12:55:30;;;;;;;0.80;0.70;;;22.60;59.70;;;;;;5058023;28;20199;-83
2021/08/03 12:57:57;;;;;;;1.42;0.70;;;23.00;53.60;;;;;;5076139;28;20246;-83
2021/08/03 13:00:39;;;;;;;2.42;0.80;;;22.90;52.70;;;;;;5057964;28;20639;-84
2021/08/03 13:03:07;;;;;;;1.00;0.88;;;22.50;55.10;;;;;;5058002;28;20261;-83